sensor_id;sensor_type;location;lat;lon;timestamp;P1;durP1;ratioP1;P2;durP2;ratioP2
23171;SDS011;11754;42.664;23.594;2023-02-28T00:00:46;33.85;;;22.92;;
23171;SDS011;11754;42.664;23.594;2023-02-28T00:03:11;30.20;;;21.15;;
23171;SDS011;11754;42.664;23.594;2023-02-28T00:05:37;31.65;;;21.25;;
23171;SDS011;11754;42.664;23.594;2023-02-28T00:08:03;30.60;;;21.42;;
23171;SDS011;11754;42.664;23.594;2023-02-28T00:10:29;34.13;;;22.30;;
23171;SDS011;11754;42.664;23.594;2023-02-28T00:12:58;33.33;;;23.05;;
23171;SDS011;11754;42.664;23.594;2023-02-28T00:15:26;37.97;;;23.75;;
23171;SDS011;11754;42.664;23.594;2023-02-28T00:17:51;36.95;;;23.23;;
23171;SDS011;11754;42.664;23.594;2023-02-28T00:20:17;35.65;;;23.73;;
23171;SDS011;11754;42.664;23.594;2023-02-28T00:22:44;52.63;;;31.52;;
23171;SDS011;11754;42.664;23.594;2023-02-28T00:25:13;50.67;;;29.52;;
23171;SDS011;11754;42.664;23.594;2023-02-28T00:27:40;44.35;;;28.10;;
23171;SDS011;11754;42.664;23.594;2023-02-28T00:30:07;52.38;;;33.30;;
23171;SDS011;11754;42.664;23.594;2023-02-28T00:32:35;43.47;;;30.55;;
23171;SDS011;11754;42.664;23.594;2023-02-28T00:35:01;36.47;;;25.52;;
23171;SDS011;11754;42.664;23.594;2023-02-28T00:37:29;34.92;;;21.75;;
23171;SDS011;11754;42.664;23.594;2023-02-28T00:39:54;30.27;;;20.33;;
23171;SDS011;11754;42.664;23.594;2023-02-28T00:42:20;31.05;;;21.05;;
23171;SDS011;11754;42.664;23.594;2023-02-28T00:44:45;32.22;;;21.83;;
23171;SDS011;11754;42.664;23.594;2023-02-28T00:47:10;34.30;;;22.27;;
23171;SDS011;11754;42.664;23.594;2023-02-28T00:49:36;33.05;;;22.05;;
23171;SDS011;11754;42.664;23.594;2023-02-28T00:52:01;30.27;;;20.67;;
23171;SDS011;11754;42.664;23.594;2023-02-28T00:54:27;31.05;;;21.35;;
23171;SDS011;11754;42.664;23.594;2023-02-28T00:56:53;31.92;;;21.63;;
23171;SDS011;11754;42.664;23.594;2023-02-28T00:59:18;35.53;;;21.20;;
23171;SDS011;11754;42.664;23.594;2023-02-28T01:01:45;31.58;;;21.77;;
23171;SDS011;11754;42.664;23.594;2023-02-28T01:04:11;30.05;;;20.33;;
23171;SDS011;11754;42.664;23.594;2023-02-28T01:06:37;35.97;;;23.95;;
23171;SDS011;11754;42.664;23.594;2023-02-28T01:09:03;33.58;;;22.55;;
23171;SDS011;11754;42.664;23.594;2023-02-28T01:11:30;32.83;;;23.27;;
23171;SDS011;11754;42.664;23.594;2023-02-28T01:13:56;36.65;;;25.02;;
23171;SDS011;11754;42.664;23.594;2023-02-28T01:16:22;36.00;;;24.67;;
23171;SDS011;11754;42.664;23.594;2023-02-28T01:18:47;36.28;;;23.73;;
23171;SDS011;11754;42.664;23.594;2023-02-28T01:21:14;34.78;;;23.52;;
23171;SDS011;11754;42.664;23.594;2023-02-28T01:23:41;37.90;;;25.45;;
23171;SDS011;11754;42.664;23.594;2023-02-28T01:26:07;39.88;;;26.33;;
23171;SDS011;11754;42.664;23.594;2023-02-28T01:28:35;34.72;;;25.48;;
23171;SDS011;11754;42.664;23.594;2023-02-28T01:31:00;31.42;;;23.85;;
23171;SDS011;11754;42.664;23.594;2023-02-28T01:33:26;34.17;;;25.15;;
23171;SDS011;11754;42.664;23.594;2023-02-28T01:35:58;33.90;;;25.33;;
23171;SDS011;11754;42.664;23.594;2023-02-28T01:38:25;35.58;;;24.55;;
23171;SDS011;11754;42.664;23.594;2023-02-28T01:40:51;35.60;;;25.58;;
23171;SDS011;11754;42.664;23.594;2023-02-28T01:43:22;38.40;;;26.88;;
23171;SDS011;11754;42.664;23.594;2023-02-28T01:45:53;41.50;;;27.73;;
23171;SDS011;11754;42.664;23.594;2023-02-28T01:48:21;38.75;;;26.83;;
23171;SDS011;11754;42.664;23.594;2023-02-28T01:50:56;41.63;;;27.20;;
23171;SDS011;11754;42.664;23.594;2023-02-28T01:53:29;34.38;;;24.65;;
23171;SDS011;11754;42.664;23.594;2023-02-28T01:55:59;34.00;;;24.80;;
23171;SDS011;11754;42.664;23.594;2023-02-28T01:58:25;32.38;;;24.58;;
23171;SDS011;11754;42.664;23.594;2023-02-28T02:00:50;33.40;;;23.27;;
23171;SDS011;11754;42.664;23.594;2023-02-28T02:03:17;32.53;;;23.08;;
23171;SDS011;11754;42.664;23.594;2023-02-28T02:05:45;30.27;;;21.70;;
23171;SDS011;11754;42.664;23.594;2023-02-28T02:08:13;29.67;;;21.13;;
23171;SDS011;11754;42.664;23.594;2023-02-28T02:10:45;30.55;;;20.90;;
23171;SDS011;11754;42.664;23.594;2023-02-28T02:34:51;29.83;;;19.63;;
23171;SDS011;11754;42.664;23.594;2023-02-28T02:37:38;27.45;;;19.40;;
23171;SDS011;11754;42.664;23.594;2023-02-28T02:40:25;28.83;;;19.80;;
23171;SDS011;11754;42.664;23.594;2023-02-28T02:45:32;29.67;;;19.70;;
23171;SDS011;11754;42.664;23.594;2023-02-28T02:48:03;26.80;;;19.15;;
23171;SDS011;11754;42.664;23.594;2023-02-28T02:50:33;28.60;;;20.75;;
23171;SDS011;11754;42.664;23.594;2023-02-28T02:53:03;34.83;;;23.75;;
23171;SDS011;11754;42.664;23.594;2023-02-28T02:55:32;39.78;;;24.83;;
23171;SDS011;11754;42.664;23.594;2023-02-28T02:58:03;39.92;;;26.40;;
23171;SDS011;11754;42.664;23.594;2023-02-28T03:00:37;39.42;;;26.02;;
23171;SDS011;11754;42.664;23.594;2023-02-28T03:03:06;46.78;;;22.30;;
23171;SDS011;11754;42.664;23.594;2023-02-28T03:05:48;144.52;;;30.13;;
23171;SDS011;11754;42.664;23.594;2023-02-28T03:08:14;274.33;;;44.30;;
23171;SDS011;11754;42.664;23.594;2023-02-28T03:10:44;255.70;;;53.42;;
23171;SDS011;11754;42.664;23.594;2023-02-28T03:21:23;172.02;;;27.30;;
23171;SDS011;11754;42.664;23.594;2023-02-28T03:23:59;40.80;;;25.85;;
23171;SDS011;11754;42.664;23.594;2023-02-28T03:26:31;134.20;;;50.80;;
23171;SDS011;11754;42.664;23.594;2023-02-28T03:31:44;83.28;;;27.88;;
23171;SDS011;11754;42.664;23.594;2023-02-28T03:34:17;57.65;;;30.75;;
23171;SDS011;11754;42.664;23.594;2023-02-28T03:36:50;50.22;;;27.17;;
23171;SDS011;11754;42.664;23.594;2023-02-28T03:39:24;168.30;;;37.42;;
23171;SDS011;11754;42.664;23.594;2023-02-28T03:41:59;236.40;;;37.58;;
23171;SDS011;11754;42.664;23.594;2023-02-28T03:44:32;199.07;;;42.80;;
23171;SDS011;11754;42.664;23.594;2023-02-28T03:53:11;54.72;;;30.35;;
23171;SDS011;11754;42.664;23.594;2023-02-28T03:55:51;67.97;;;31.10;;
23171;SDS011;11754;42.664;23.594;2023-02-28T04:01:23;99.97;;;32.25;;
23171;SDS011;11754;42.664;23.594;2023-02-28T04:03:53;72.32;;;31.42;;
23171;SDS011;11754;42.664;23.594;2023-02-28T04:06:20;147.27;;;32.47;;
23171;SDS011;11754;42.664;23.594;2023-02-28T04:08:47;134.35;;;33.22;;
23171;SDS011;11754;42.664;23.594;2023-02-28T04:11:23;102.30;;;30.73;;
23171;SDS011;11754;42.664;23.594;2023-02-28T04:13:54;100.85;;;31.00;;
23171;SDS011;11754;42.664;23.594;2023-02-28T04:16:20;90.78;;;30.75;;
23171;SDS011;11754;42.664;23.594;2023-02-28T04:18:46;105.45;;;30.10;;
23171;SDS011;11754;42.664;23.594;2023-02-28T04:21:11;66.60;;;35.40;;
23171;SDS011;11754;42.664;23.594;2023-02-28T04:23:37;71.13;;;33.97;;
23171;SDS011;11754;42.664;23.594;2023-02-28T04:26:03;96.78;;;38.10;;
23171;SDS011;11754;42.664;23.594;2023-02-28T04:28:29;116.80;;;33.58;;
23171;SDS011;11754;42.664;23.594;2023-02-28T04:30:58;120.53;;;32.20;;
23171;SDS011;11754;42.664;23.594;2023-02-28T04:33:26;91.18;;;30.13;;
23171;SDS011;11754;42.664;23.594;2023-02-28T04:36:01;103.20;;;29.52;;
23171;SDS011;11754;42.664;23.594;2023-02-28T04:38:37;87.97;;;30.67;;
23171;SDS011;11754;42.664;23.594;2023-02-28T04:41:03;76.25;;;28.17;;
23171;SDS011;11754;42.664;23.594;2023-02-28T04:43:30;109.03;;;25.73;;
23171;SDS011;11754;42.664;23.594;2023-02-28T04:45:56;59.47;;;24.70;;
23171;SDS011;11754;42.664;23.594;2023-02-28T04:48:23;152.98;;;27.05;;
23171;SDS011;11754;42.664;23.594;2023-02-28T04:50:50;87.78;;;25.83;;
23171;SDS011;11754;42.664;23.594;2023-02-28T04:53:16;52.72;;;25.63;;
23171;SDS011;11754;42.664;23.594;2023-02-28T04:55:42;59.60;;;24.58;;
23171;SDS011;11754;42.664;23.594;2023-02-28T04:58:07;66.88;;;24.92;;
23171;SDS011;11754;42.664;23.594;2023-02-28T05:00:33;39.72;;;24.95;;
23171;SDS011;11754;42.664;23.594;2023-02-28T05:02:58;51.35;;;25.25;;
23171;SDS011;11754;42.664;23.594;2023-02-28T05:05:23;43.33;;;24.63;;
23171;SDS011;11754;42.664;23.594;2023-02-28T05:07:49;37.03;;;24.17;;
23171;SDS011;11754;42.664;23.594;2023-02-28T05:10:14;53.17;;;25.38;;
23171;SDS011;11754;42.664;23.594;2023-02-28T05:12:40;49.78;;;27.05;;
23171;SDS011;11754;42.664;23.594;2023-02-28T05:15:06;43.30;;;27.98;;
23171;SDS011;11754;42.664;23.594;2023-02-28T05:17:31;39.05;;;26.88;;
23171;SDS011;11754;42.664;23.594;2023-02-28T05:19:57;40.67;;;26.73;;
23171;SDS011;11754;42.664;23.594;2023-02-28T05:22:22;43.67;;;28.20;;
23171;SDS011;11754;42.664;23.594;2023-02-28T05:24:48;43.58;;;28.38;;
23171;SDS011;11754;42.664;23.594;2023-02-28T05:27:13;46.03;;;29.02;;
23171;SDS011;11754;42.664;23.594;2023-02-28T05:29:38;44.67;;;28.15;;
23171;SDS011;11754;42.664;23.594;2023-02-28T05:32:10;35.53;;;23.45;;
23171;SDS011;11754;42.664;23.594;2023-02-28T05:34:37;42.58;;;27.92;;
23171;SDS011;11754;42.664;23.594;2023-02-28T05:37:03;41.85;;;27.83;;
23171;SDS011;11754;42.664;23.594;2023-02-28T05:39:29;42.70;;;27.73;;
23171;SDS011;11754;42.664;23.594;2023-02-28T05:41:54;41.30;;;28.27;;
23171;SDS011;11754;42.664;23.594;2023-02-28T05:44:20;40.47;;;27.25;;
23171;SDS011;11754;42.664;23.594;2023-02-28T05:46:45;40.92;;;27.63;;
23171;SDS011;11754;42.664;23.594;2023-02-28T05:49:11;39.35;;;25.38;;
23171;SDS011;11754;42.664;23.594;2023-02-28T05:51:36;41.05;;;27.65;;
23171;SDS011;11754;42.664;23.594;2023-02-28T05:54:04;43.42;;;27.10;;
23171;SDS011;11754;42.664;23.594;2023-02-28T05:56:30;40.33;;;27.40;;
23171;SDS011;11754;42.664;23.594;2023-02-28T05:58:56;43.45;;;28.25;;
23171;SDS011;11754;42.664;23.594;2023-02-28T06:01:23;42.50;;;28.45;;
23171;SDS011;11754;42.664;23.594;2023-02-28T06:04:03;38.75;;;26.85;;
23171;SDS011;11754;42.664;23.594;2023-02-28T06:06:30;42.28;;;27.60;;
23171;SDS011;11754;42.664;23.594;2023-02-28T06:08:56;45.45;;;29.77;;
23171;SDS011;11754;42.664;23.594;2023-02-28T06:11:22;49.15;;;31.60;;
23171;SDS011;11754;42.664;23.594;2023-02-28T06:13:55;42.53;;;28.45;;
23171;SDS011;11754;42.664;23.594;2023-02-28T06:16:25;44.40;;;28.27;;
23171;SDS011;11754;42.664;23.594;2023-02-28T06:18:51;40.83;;;27.17;;
23171;SDS011;11754;42.664;23.594;2023-02-28T06:21:26;43.42;;;25.77;;
23171;SDS011;11754;42.664;23.594;2023-02-28T06:23:55;33.53;;;23.65;;
23171;SDS011;11754;42.664;23.594;2023-02-28T06:26:21;32.47;;;23.27;;
23171;SDS011;11754;42.664;23.594;2023-02-28T06:28:47;35.05;;;24.77;;
23171;SDS011;11754;42.664;23.594;2023-02-28T06:31:13;34.10;;;24.02;;
23171;SDS011;11754;42.664;23.594;2023-02-28T06:33:40;35.60;;;23.13;;
23171;SDS011;11754;42.664;23.594;2023-02-28T06:36:07;108.28;;;62.08;;
23171;SDS011;11754;42.664;23.594;2023-02-28T06:38:34;50.50;;;32.03;;
23171;SDS011;11754;42.664;23.594;2023-02-28T06:41:00;122.78;;;75.03;;
23171;SDS011;11754;42.664;23.594;2023-02-28T06:43:31;49.63;;;35.30;;
23171;SDS011;11754;42.664;23.594;2023-02-28T06:45:58;31.45;;;23.45;;
23171;SDS011;11754;42.664;23.594;2023-02-28T06:48:26;36.97;;;25.25;;
23171;SDS011;11754;42.664;23.594;2023-02-28T06:50:52;40.65;;;26.38;;
23171;SDS011;11754;42.664;23.594;2023-02-28T06:53:25;46.47;;;30.77;;
23171;SDS011;11754;42.664;23.594;2023-02-28T06:55:51;44.53;;;30.27;;
23171;SDS011;11754;42.664;23.594;2023-02-28T06:58:16;45.35;;;33.25;;
23171;SDS011;11754;42.664;23.594;2023-02-28T07:00:44;42.20;;;30.00;;
23171;SDS011;11754;42.664;23.594;2023-02-28T07:03:11;41.50;;;26.73;;
23171;SDS011;11754;42.664;23.594;2023-02-28T07:05:37;37.72;;;24.80;;
23171;SDS011;11754;42.664;23.594;2023-02-28T07:08:04;40.10;;;25.02;;
23171;SDS011;11754;42.664;23.594;2023-02-28T07:10:31;42.20;;;27.13;;
23171;SDS011;11754;42.664;23.594;2023-02-28T07:12:57;41.15;;;27.00;;
23171;SDS011;11754;42.664;23.594;2023-02-28T07:15:23;43.85;;;28.08;;
23171;SDS011;11754;42.664;23.594;2023-02-28T07:17:49;41.60;;;25.55;;
23171;SDS011;11754;42.664;23.594;2023-02-28T07:20:14;41.45;;;26.23;;
23171;SDS011;11754;42.664;23.594;2023-02-28T07:22:39;40.53;;;23.38;;
23171;SDS011;11754;42.664;23.594;2023-02-28T07:25:06;37.10;;;21.75;;
23171;SDS011;11754;42.664;23.594;2023-02-28T07:27:32;32.00;;;22.25;;
23171;SDS011;11754;42.664;23.594;2023-02-28T07:29:59;37.55;;;25.80;;
23171;SDS011;11754;42.664;23.594;2023-02-28T07:32:26;32.25;;;23.67;;
23171;SDS011;11754;42.664;23.594;2023-02-28T07:34:52;36.88;;;21.65;;
23171;SDS011;11754;42.664;23.594;2023-02-28T07:37:18;37.15;;;24.92;;
23171;SDS011;11754;42.664;23.594;2023-02-28T07:39:44;40.30;;;23.55;;
23171;SDS011;11754;42.664;23.594;2023-02-28T07:42:09;36.38;;;24.52;;
23171;SDS011;11754;42.664;23.594;2023-02-28T07:44:37;35.63;;;22.45;;
23171;SDS011;11754;42.664;23.594;2023-02-28T07:47:06;35.55;;;21.08;;
23171;SDS011;11754;42.664;23.594;2023-02-28T07:49:33;35.67;;;21.45;;
23171;SDS011;11754;42.664;23.594;2023-02-28T07:51:59;33.00;;;21.33;;
23171;SDS011;11754;42.664;23.594;2023-02-28T07:54:24;39.45;;;22.50;;
23171;SDS011;11754;42.664;23.594;2023-02-28T07:56:50;32.58;;;22.63;;
23171;SDS011;11754;42.664;23.594;2023-02-28T07:59:15;37.63;;;21.30;;
23171;SDS011;11754;42.664;23.594;2023-02-28T08:01:40;36.08;;;21.65;;
23171;SDS011;11754;42.664;23.594;2023-02-28T08:04:06;30.05;;;20.30;;
23171;SDS011;11754;42.664;23.594;2023-02-28T08:06:31;31.58;;;21.45;;
23171;SDS011;11754;42.664;23.594;2023-02-28T08:08:56;34.35;;;21.77;;
23171;SDS011;11754;42.664;23.594;2023-02-28T08:11:22;35.20;;;22.52;;
23171;SDS011;11754;42.664;23.594;2023-02-28T08:13:48;31.80;;;22.23;;
23171;SDS011;11754;42.664;23.594;2023-02-28T08:16:13;31.63;;;19.98;;
23171;SDS011;11754;42.664;23.594;2023-02-28T08:18:46;32.33;;;21.30;;
23171;SDS011;11754;42.664;23.594;2023-02-28T08:21:12;32.53;;;21.20;;
23171;SDS011;11754;42.664;23.594;2023-02-28T08:23:37;35.35;;;21.25;;
23171;SDS011;11754;42.664;23.594;2023-02-28T08:26:03;36.50;;;23.45;;
23171;SDS011;11754;42.664;23.594;2023-02-28T08:28:29;33.35;;;21.42;;
23171;SDS011;11754;42.664;23.594;2023-02-28T08:30:55;36.05;;;22.33;;
23171;SDS011;11754;42.664;23.594;2023-02-28T08:33:21;28.90;;;18.48;;
23171;SDS011;11754;42.664;23.594;2023-02-28T08:35:47;37.92;;;21.17;;
23171;SDS011;11754;42.664;23.594;2023-02-28T08:38:13;32.55;;;19.80;;
23171;SDS011;11754;42.664;23.594;2023-02-28T08:40:38;30.52;;;19.67;;
23171;SDS011;11754;42.664;23.594;2023-02-28T08:43:04;27.45;;;19.90;;
23171;SDS011;11754;42.664;23.594;2023-02-28T08:45:29;36.95;;;23.50;;
23171;SDS011;11754;42.664;23.594;2023-02-28T08:47:55;27.85;;;18.60;;
23171;SDS011;11754;42.664;23.594;2023-02-28T08:50:21;24.15;;;16.90;;
23171;SDS011;11754;42.664;23.594;2023-02-28T08:52:46;28.08;;;17.10;;
23171;SDS011;11754;42.664;23.594;2023-02-28T08:55:12;28.85;;;17.92;;
23171;SDS011;11754;42.664;23.594;2023-02-28T08:57:37;26.58;;;17.08;;
23171;SDS011;11754;42.664;23.594;2023-02-28T09:00:03;26.23;;;18.45;;
23171;SDS011;11754;42.664;23.594;2023-02-28T09:02:29;32.50;;;19.67;;
23171;SDS011;11754;42.664;23.594;2023-02-28T09:04:56;27.55;;;18.67;;
23171;SDS011;11754;42.664;23.594;2023-02-28T09:07:22;28.55;;;17.80;;
23171;SDS011;11754;42.664;23.594;2023-02-28T09:09:48;26.88;;;16.25;;
23171;SDS011;11754;42.664;23.594;2023-02-28T09:12:20;28.17;;;17.90;;
23171;SDS011;11754;42.664;23.594;2023-02-28T09:14:46;27.73;;;16.52;;
23171;SDS011;11754;42.664;23.594;2023-02-28T09:17:11;25.13;;;15.98;;
23171;SDS011;11754;42.664;23.594;2023-02-28T09:19:37;22.50;;;14.98;;
23171;SDS011;11754;42.664;23.594;2023-02-28T09:22:02;24.60;;;14.95;;
23171;SDS011;11754;42.664;23.594;2023-02-28T09:24:28;24.23;;;15.80;;
23171;SDS011;11754;42.664;23.594;2023-02-28T09:26:53;24.70;;;15.95;;
23171;SDS011;11754;42.664;23.594;2023-02-28T09:29:18;28.88;;;16.52;;
23171;SDS011;11754;42.664;23.594;2023-02-28T09:31:44;31.48;;;17.35;;
23171;SDS011;11754;42.664;23.594;2023-02-28T09:34:10;24.33;;;15.55;;
23171;SDS011;11754;42.664;23.594;2023-02-28T09:36:35;24.00;;;15.60;;
23171;SDS011;11754;42.664;23.594;2023-02-28T09:39:03;26.00;;;14.98;;
23171;SDS011;11754;42.664;23.594;2023-02-28T09:41:31;21.63;;;15.18;;
23171;SDS011;11754;42.664;23.594;2023-02-28T09:44:12;23.05;;;15.05;;
23171;SDS011;11754;42.664;23.594;2023-02-28T09:46:46;26.50;;;16.95;;
23171;SDS011;11754;42.664;23.594;2023-02-28T09:49:19;37.75;;;24.33;;
23171;SDS011;11754;42.664;23.594;2023-02-28T09:51:56;29.88;;;20.40;;
23171;SDS011;11754;42.664;23.594;2023-02-28T09:54:26;31.20;;;21.80;;
23171;SDS011;11754;42.664;23.594;2023-02-28T09:57:18;47.90;;;27.13;;
23171;SDS011;11754;42.664;23.594;2023-02-28T10:00:20;30.65;;;18.13;;
23171;SDS011;11754;42.664;23.594;2023-02-28T10:05:15;30.92;;;19.15;;
23171;SDS011;11754;42.664;23.594;2023-02-28T10:08:00;29.23;;;19.05;;
23171;SDS011;11754;42.664;23.594;2023-02-28T10:11:06;35.08;;;21.15;;
23171;SDS011;11754;42.664;23.594;2023-02-28T10:13:34;41.45;;;31.58;;
23171;SDS011;11754;42.664;23.594;2023-02-28T10:16:03;35.55;;;24.92;;
23171;SDS011;11754;42.664;23.594;2023-02-28T10:18:49;38.97;;;26.05;;
23171;SDS011;11754;42.664;23.594;2023-02-28T10:21:23;31.30;;;20.60;;
23171;SDS011;11754;42.664;23.594;2023-02-28T10:23:53;30.90;;;19.67;;
23171;SDS011;11754;42.664;23.594;2023-02-28T10:26:26;35.17;;;20.90;;
23171;SDS011;11754;42.664;23.594;2023-02-28T10:28:55;36.25;;;22.85;;
23171;SDS011;11754;42.664;23.594;2023-02-28T10:31:21;32.42;;;20.45;;
23171;SDS011;11754;42.664;23.594;2023-02-28T10:33:46;32.95;;;21.20;;
23171;SDS011;11754;42.664;23.594;2023-02-28T10:36:15;36.45;;;21.30;;
23171;SDS011;11754;42.664;23.594;2023-02-28T10:38:43;39.08;;;22.10;;
23171;SDS011;11754;42.664;23.594;2023-02-28T10:41:11;42.03;;;22.35;;
23171;SDS011;11754;42.664;23.594;2023-02-28T10:43:40;39.72;;;27.80;;
23171;SDS011;11754;42.664;23.594;2023-02-28T10:48:38;37.40;;;22.27;;
23171;SDS011;11754;42.664;23.594;2023-02-28T10:51:14;32.13;;;21.77;;
23171;SDS011;11754;42.664;23.594;2023-02-28T10:53:54;41.63;;;24.95;;
23171;SDS011;11754;42.664;23.594;2023-02-28T11:03:53;39.22;;;21.80;;
23171;SDS011;11754;42.664;23.594;2023-02-28T11:06:20;31.83;;;20.98;;
23171;SDS011;11754;42.664;23.594;2023-02-28T11:08:58;32.53;;;21.73;;
23171;SDS011;11754;42.664;23.594;2023-02-28T11:11:26;35.80;;;20.70;;
23171;SDS011;11754;42.664;23.594;2023-02-28T11:13:58;30.33;;;19.90;;
23171;SDS011;11754;42.664;23.594;2023-02-28T11:16:36;35.33;;;23.63;;
23171;SDS011;11754;42.664;23.594;2023-02-28T11:19:03;56.72;;;36.88;;
23171;SDS011;11754;42.664;23.594;2023-02-28T11:21:35;44.42;;;26.35;;
23171;SDS011;11754;42.664;23.594;2023-02-28T11:24:27;32.63;;;21.83;;
23171;SDS011;11754;42.664;23.594;2023-02-28T11:26:53;25.63;;;17.45;;
23171;SDS011;11754;42.664;23.594;2023-02-28T11:29:23;25.67;;;17.35;;
23171;SDS011;11754;42.664;23.594;2023-02-28T11:34:44;25.75;;;18.27;;
23171;SDS011;11754;42.664;23.594;2023-02-28T11:37:12;30.42;;;19.40;;
23171;SDS011;11754;42.664;23.594;2023-02-28T11:39:43;30.50;;;19.13;;
23171;SDS011;11754;42.664;23.594;2023-02-28T11:48:17;28.48;;;18.33;;
23171;SDS011;11754;42.664;23.594;2023-02-28T11:51:06;27.77;;;17.30;;
23171;SDS011;11754;42.664;23.594;2023-02-28T12:07:26;29.20;;;18.15;;
23171;SDS011;11754;42.664;23.594;2023-02-28T12:15:28;29.10;;;16.13;;
23171;SDS011;11754;42.664;23.594;2023-02-28T12:20:54;25.27;;;15.95;;
23171;SDS011;11754;42.664;23.594;2023-02-28T12:28:49;25.30;;;15.23;;
23171;SDS011;11754;42.664;23.594;2023-02-28T12:31:20;29.17;;;16.60;;
23171;SDS011;11754;42.664;23.594;2023-02-28T12:33:52;27.50;;;17.23;;
23171;SDS011;11754;42.664;23.594;2023-02-28T12:36:21;24.35;;;15.82;;
23171;SDS011;11754;42.664;23.594;2023-02-28T12:41:51;21.35;;;14.40;;
23171;SDS011;11754;42.664;23.594;2023-02-28T12:44:24;21.45;;;14.32;;
23171;SDS011;11754;42.664;23.594;2023-02-28T12:46:56;21.35;;;12.55;;
23171;SDS011;11754;42.664;23.594;2023-02-28T12:49:49;22.55;;;13.10;;
23171;SDS011;11754;42.664;23.594;2023-02-28T12:52:22;26.85;;;13.98;;
23171;SDS011;11754;42.664;23.594;2023-02-28T12:55:02;26.60;;;14.07;;
23171;SDS011;11754;42.664;23.594;2023-02-28T13:00:15;31.20;;;14.30;;
23171;SDS011;11754;42.664;23.594;2023-02-28T13:14:13;29.95;;;16.58;;
23171;SDS011;11754;42.664;23.594;2023-02-28T13:19:16;30.38;;;15.40;;
23171;SDS011;11754;42.664;23.594;2023-02-28T13:21:44;25.70;;;13.05;;
23171;SDS011;11754;42.664;23.594;2023-02-28T13:24:10;26.05;;;15.65;;
23171;SDS011;11754;42.664;23.594;2023-02-28T13:47:39;32.50;;;18.25;;
23171;SDS011;11754;42.664;23.594;2023-02-28T13:55:45;21.48;;;14.75;;
23171;SDS011;11754;42.664;23.594;2023-02-28T13:58:19;28.42;;;16.50;;
23171;SDS011;11754;42.664;23.594;2023-02-28T14:06:28;24.23;;;14.88;;
23171;SDS011;11754;42.664;23.594;2023-02-28T14:08:58;24.23;;;15.10;;
23171;SDS011;11754;42.664;23.594;2023-02-28T14:11:34;24.25;;;15.13;;
23171;SDS011;11754;42.664;23.594;2023-02-28T14:14:02;23.83;;;15.32;;
23171;SDS011;11754;42.664;23.594;2023-02-28T14:19:14;30.67;;;16.27;;
23171;SDS011;11754;42.664;23.594;2023-02-28T14:33:01;30.52;;;17.77;;
23171;SDS011;11754;42.664;23.594;2023-02-28T14:36:06;27.13;;;18.95;;
23171;SDS011;11754;42.664;23.594;2023-02-28T14:38:55;23.17;;;15.10;;
23171;SDS011;11754;42.664;23.594;2023-02-28T14:41:32;33.40;;;16.80;;
23171;SDS011;11754;42.664;23.594;2023-02-28T14:47:01;33.05;;;21.08;;
23171;SDS011;11754;42.664;23.594;2023-02-28T14:49:32;26.02;;;17.10;;
23171;SDS011;11754;42.664;23.594;2023-02-28T14:52:02;23.83;;;15.52;;
23171;SDS011;11754;42.664;23.594;2023-02-28T14:54:28;27.67;;;17.30;;
23171;SDS011;11754;42.664;23.594;2023-02-28T14:56:54;26.08;;;16.50;;
23171;SDS011;11754;42.664;23.594;2023-02-28T14:59:27;29.30;;;16.45;;
23171;SDS011;11754;42.664;23.594;2023-02-28T15:04:51;33.67;;;17.65;;
23171;SDS011;11754;42.664;23.594;2023-02-28T15:07:37;37.75;;;20.88;;
23171;SDS011;11754;42.664;23.594;2023-02-28T15:12:56;36.00;;;19.48;;
23171;SDS011;11754;42.664;23.594;2023-02-28T15:21:20;61.10;;;32.38;;
23171;SDS011;11754;42.664;23.594;2023-02-28T15:23:50;64.65;;;32.72;;
23171;SDS011;11754;42.664;23.594;2023-02-28T15:26:30;36.47;;;21.58;;
23171;SDS011;11754;42.664;23.594;2023-02-28T15:29:00;40.83;;;21.38;;
23171;SDS011;11754;42.664;23.594;2023-02-28T15:31:32;40.58;;;20.73;;
23171;SDS011;11754;42.664;23.594;2023-02-28T15:34:02;54.97;;;29.10;;
23171;SDS011;11754;42.664;23.594;2023-02-28T15:36:30;47.47;;;25.92;;
23171;SDS011;11754;42.664;23.594;2023-02-28T15:39:01;26.48;;;17.52;;
23171;SDS011;11754;42.664;23.594;2023-02-28T15:41:28;28.25;;;16.42;;
23171;SDS011;11754;42.664;23.594;2023-02-28T15:44:14;28.45;;;15.98;;
23171;SDS011;11754;42.664;23.594;2023-02-28T15:47:04;29.10;;;17.70;;
23171;SDS011;11754;42.664;23.594;2023-02-28T15:49:38;19.67;;;11.52;;
23171;SDS011;11754;42.664;23.594;2023-02-28T15:52:12;22.80;;;12.63;;
23171;SDS011;11754;42.664;23.594;2023-02-28T15:54:41;27.42;;;13.57;;
23171;SDS011;11754;42.664;23.594;2023-02-28T15:57:11;26.95;;;12.10;;
23171;SDS011;11754;42.664;23.594;2023-02-28T15:59:53;20.05;;;12.57;;
23171;SDS011;11754;42.664;23.594;2023-02-28T16:02:41;22.48;;;12.95;;
23171;SDS011;11754;42.664;23.594;2023-02-28T16:07:35;42.30;;;23.30;;
23171;SDS011;11754;42.664;23.594;2023-02-28T16:10:05;23.65;;;11.85;;
23171;SDS011;11754;42.664;23.594;2023-02-28T16:12:33;19.23;;;9.63;;
23171;SDS011;11754;42.664;23.594;2023-02-28T16:15:20;27.40;;;13.15;;
23171;SDS011;11754;42.664;23.594;2023-02-28T16:17:48;28.13;;;11.50;;
23171;SDS011;11754;42.664;23.594;2023-02-28T16:20:15;19.38;;;8.70;;
23171;SDS011;11754;42.664;23.594;2023-02-28T16:22:42;37.45;;;17.10;;
23171;SDS011;11754;42.664;23.594;2023-02-28T16:25:15;33.17;;;16.10;;
23171;SDS011;11754;42.664;23.594;2023-02-28T16:27:42;23.20;;;12.50;;
23171;SDS011;11754;42.664;23.594;2023-02-28T16:30:15;19.67;;;13.02;;
23171;SDS011;11754;42.664;23.594;2023-02-28T16:32:48;14.82;;;8.88;;
23171;SDS011;11754;42.664;23.594;2023-02-28T16:35:15;17.23;;;9.32;;
23171;SDS011;11754;42.664;23.594;2023-02-28T16:37:42;16.63;;;9.70;;
23171;SDS011;11754;42.664;23.594;2023-02-28T16:40:12;18.33;;;11.90;;
23171;SDS011;11754;42.664;23.594;2023-02-28T16:42:41;20.08;;;13.23;;
23171;SDS011;11754;42.664;23.594;2023-02-28T16:45:13;28.63;;;17.30;;
23171;SDS011;11754;42.664;23.594;2023-02-28T16:47:41;19.98;;;10.65;;
23171;SDS011;11754;42.664;23.594;2023-02-28T16:50:13;17.55;;;9.65;;
23171;SDS011;11754;42.664;23.594;2023-02-28T16:52:49;16.33;;;7.85;;
23171;SDS011;11754;42.664;23.594;2023-02-28T16:55:17;12.93;;;6.57;;
23171;SDS011;11754;42.664;23.594;2023-02-28T16:57:44;14.32;;;6.60;;
23171;SDS011;11754;42.664;23.594;2023-02-28T17:00:15;11.80;;;6.53;;
23171;SDS011;11754;42.664;23.594;2023-02-28T17:02:40;12.27;;;6.65;;
23171;SDS011;11754;42.664;23.594;2023-02-28T17:05:06;11.25;;;6.65;;
23171;SDS011;11754;42.664;23.594;2023-02-28T17:07:32;9.85;;;4.95;;
23171;SDS011;11754;42.664;23.594;2023-02-28T17:09:58;10.90;;;5.68;;
23171;SDS011;11754;42.664;23.594;2023-02-28T17:12:25;10.13;;;5.10;;
23171;SDS011;11754;42.664;23.594;2023-02-28T17:14:51;12.15;;;5.68;;
23171;SDS011;11754;42.664;23.594;2023-02-28T17:17:20;10.70;;;6.03;;